Portada
METAR-TAF:

METAR-TAF

Aeropuertos :

Aeropuerto Internacional Josefa Camejo

Paraguaná, Venezuela

latitud: 11-47N, longitud: 070-09W, altitud: 23 m

METAR: falta

Hora: 21:38 (01:38 UTC)

Pronóstico

El informe se hizo hace 3 horas y 38 minutos, a las 22:00 UTC
Pronóstico válido del 23 a las 00 UTC al 24 a las 00 UTC
Viento 10 kt del este
Visibilidad 10 km o más
Nubes dispersas a una altura de 1300 ft
Evolucionando progresivamente
del 23 a las 01 UTC al 23 a las 05 UTC
Viento 8 kt del este
Escasas nubes a una altura de 1600 ft
Nubes dispersas a una altura de 8000 ft

TAF: SVJC 222200Z 2300/2400 09010KT 9999 SCT013 TX35/18Z TN26/08Z BECMG 2301/2305 09008KT FEW016 SCT080

Observaciones y pronósticos meteorológicos de más de 4000 aeropuertos (mensajes METAR y TAF).

Los puntos amarillos y rojos representan las estaciones disponibles.

Ponga el ratón en el punto deseado para ver el nombre de la estación.

Haga clic para ver las observaciones y los pronósticos meteorológicos.

Para cambiar el mapa : haga clic en los botones verdes con una cruz de color negro para hacer un zoom, en el botón verde con un guión para alejar o en las flechas verdes para mapas adyacentes.


METAR-TAF: